Time;durP1;ratioP1;P1;durP2;ratioP2;P2;SDS_P1;SDS_P2;PMS_P1;PMS_P2;Temp;Humidity;BMP_temperature;BMP_pressure;BME280_temperature;BME280_humidity;BME280_pressure;Samples;Min_cycle;Max_cycle;Signal;HPM_P1;HPM_P2
2022/07/25 00:00:08;;;;;;;2.47;2.28;;;23.20;99.90;;;;;;5119577;28;20047;-82
2022/07/25 00:02:35;;;;;;;2.45;2.25;;;22.80;99.90;;;;;;5104322;28;20039;-82
2022/07/25 00:05:01;;;;;;;3.50;2.60;;;23.10;99.90;;;;;;5102274;28;20059;-82
2022/07/25 00:07:27;;;;;;;3.17;2.50;;;23.10;99.90;;;;;;5118658;28;20481;-83
2022/07/25 00:09:54;;;;;;;4.75;2.60;;;;;;;;;;5100812;28;20043;-82
2022/07/25 00:12:20;;;;;;;3.67;2.35;;;22.90;99.90;;;;;;5118008;28;20077;-82
2022/07/25 00:14:47;;;;;;;3.05;2.65;;;;;;;;;;5114054;28;20046;-88
2022/07/25 00:17:13;;;;;;;3.42;2.75;;;23.20;99.90;;;;;;5096193;28;20084;-90
2022/07/25 00:19:39;;;;;;;2.63;2.42;;;23.00;99.90;;;;;;5096528;28;20043;-89
2022/07/25 00:22:05;;;;;;;2.97;2.63;;;23.10;99.90;;;;;;5113195;28;20035;-86
2022/07/25 00:24:30;;;;;;;2.88;2.40;;;23.10;99.90;;;;;;5113184;28;20073;-87
2022/07/25 00:26:56;;;;;;;3.50;2.60;;;23.10;99.90;;;;;;5113369;28;20507;-84
2022/07/25 00:29:22;;;;;;;3.20;2.78;;;23.40;99.90;;;;;;5096172;28;21792;-88
2022/07/25 00:31:47;;;;;;;2.50;2.30;;;23.00;99.90;;;;;;5113160;28;20035;-86
2022/07/25 00:34:13;;;;;;;6.30;2.55;;;23.50;99.90;;;;;;5113520;28;20058;-85
2022/07/25 00:36:39;;;;;;;3.40;2.83;;;23.10;99.90;;;;;;5113205;28;20539;-86
2022/07/25 00:39:05;;;;;;;3.03;2.53;;;23.00;99.90;;;;;;5095855;28;20140;-86
2022/07/25 00:41:30;;;;;;;5.85;2.42;;;23.20;99.90;;;;;;5098259;27;20407;-89
2022/07/25 00:43:56;;;;;;;2.83;2.42;;;23.10;99.90;;;;;;5099439;27;20039;-86
2022/07/25 00:46:22;;;;;;;3.08;2.85;;;23.20;99.90;;;;;;5100034;27;20039;-88
2022/07/25 00:48:48;;;;;;;5.25;3.17;;;23.00;99.90;;;;;;5122653;27;20514;-82
2022/07/25 00:51:15;;;;;;;4.53;3.00;;;23.30;99.90;;;;;;5121524;27;20035;-82
2022/07/25 00:53:41;;;;;;;2.80;2.60;;;;;;;;;;5120423;27;20088;-81
2022/07/25 00:56:08;;;;;;;2.65;2.45;;;23.00;99.90;;;;;;5104179;27;20039;-85
2022/07/25 00:58:34;;;;;;;5.15;3.10;;;23.10;99.90;;;;;;5104442;27;20512;-83
2022/07/25 01:01:00;;;;;;;6.82;3.08;;;23.00;99.90;;;;;;5118080;27;20487;-84
2022/07/25 01:03:26;;;;;;;5.78;2.90;;;23.10;99.90;;;;;;5101434;27;20082;-85
2022/07/25 01:05:53;;;;;;;3.58;3.15;;;23.10;99.90;;;;;;5117891;27;20040;-82
2022/07/25 01:08:20;;;;;;;3.50;3.05;;;23.20;99.90;;;;;;5100165;27;20031;-82
2022/07/25 01:10:47;;;;;;;3.55;3.22;;;23.30;99.90;;;;;;5101795;27;20035;-84
2022/07/25 01:13:13;;;;;;;3.97;3.30;;;23.30;99.90;;;;;;5100517;27;20385;-84
2022/07/25 01:15:39;;;;;;;6.35;2.88;;;23.00;99.90;;;;;;5117042;27;20039;-83
2022/07/25 01:18:05;;;;;;;3.60;3.30;;;23.00;99.90;;;;;;5118080;27;20133;-82
2022/07/25 01:20:31;;;;;;;4.00;3.58;;;23.00;99.90;;;;;;5118385;27;20507;-82
2022/07/25 01:22:58;;;;;;;4.22;3.78;;;22.90;99.90;;;;;;5099839;27;20042;-82
2022/07/25 01:25:25;;;;;;;3.67;3.38;;;22.90;99.90;;;;;;5100210;27;20039;-88
2022/07/25 01:27:52;;;;;;;4.00;3.30;;;23.00;99.90;;;;;;5099157;27;20058;-83
2022/07/25 01:30:19;;;;;;;5.45;3.72;;;22.90;99.90;;;;;;5099097;27;20035;-88
2022/07/25 01:32:46;;;;;;;4.60;3.45;;;22.80;99.90;;;;;;5116566;27;20043;-85
2022/07/25 01:35:12;;;;;;;4.28;3.80;;;22.90;99.90;;;;;;5099241;27;20035;-82
2022/07/25 01:37:39;;;;;;;6.57;4.18;;;;;;;;;;5099421;27;20075;-91
2022/07/25 01:40:06;;;;;;;4.10;3.70;;;22.60;99.90;;;;;;5099842;27;20130;-82
2022/07/25 01:42:32;;;;;;;3.90;3.47;;;22.60;99.90;;;;;;5116158;27;20153;-85
2022/07/25 01:44:57;;;;;;;6.60;4.10;;;22.70;99.90;;;;;;5098911;27;20184;-87
2022/07/25 01:47:23;;;;;;;4.13;3.72;;;;;;;;;;5098618;27;20043;-88
2022/07/25 01:49:50;;;;;;;4.65;3.75;;;;;;;;;;5098754;27;20559;-88
2022/07/25 01:52:15;;;;;;;4.18;3.88;;;22.40;99.90;;;;;;5097548;27;20552;-86
2022/07/25 01:54:41;;;;;;;4.13;3.63;;;22.60;99.90;;;;;;5115755;27;20066;-87
2022/07/25 01:57:07;;;;;;;3.95;3.63;;;22.40;99.90;;;;;;5115331;27;20031;-84
2022/07/25 01:59:38;;;;;;;5.15;3.47;;;22.30;99.90;;;;;;5098516;27;20043;-84
2022/07/25 02:02:04;;;;;;;4.13;3.78;;;22.30;99.90;;;;;;5098143;27;20035;-83
2022/07/25 02:04:30;;;;;;;4.45;3.90;;;;;;;;;;5114919;27;20133;-84
2022/07/25 02:06:56;;;;;;;6.95;4.18;;;22.30;99.90;;;;;;5098326;27;20119;-84
2022/07/25 02:09:21;;;;;;;4.38;3.85;;;22.20;99.90;;;;;;5115189;27;20066;-86
2022/07/25 02:11:47;;;;;;;4.88;3.22;;;;;;;;;;5115492;27;20042;-84
2022/07/25 02:14:13;;;;;;;4.07;3.78;;;22.30;99.90;;;;;;5115381;27;20126;-82
2022/07/25 02:16:39;;;;;;;7.82;4.18;;;22.10;99.90;;;;;;5114701;27;20118;-85
2022/07/25 02:19:05;;;;;;;4.45;3.42;;;22.40;99.90;;;;;;5098292;27;20031;-85
2022/07/25 02:21:30;;;;;;;6.35;3.50;;;22.40;99.90;;;;;;5097929;27;20505;-83
2022/07/25 02:23:56;;;;;;;3.80;3.40;;;22.20;99.90;;;;;;5114876;27;20118;-87
2022/07/25 02:26:22;;;;;;;3.97;3.40;;;22.30;99.90;;;;;;5115152;27;20035;-84
2022/07/25 02:28:49;;;;;;;3.92;3.53;;;22.30;99.90;;;;;;5109860;27;20376;-84
2022/07/25 02:31:15;;;;;;;8.15;3.65;;;;;;;;;;5101731;27;20039;-81
2022/07/25 02:33:41;;;;;;;5.18;3.83;;;;;;;;;;5099001;27;20043;-82
2022/07/25 02:36:07;;;;;;;5.25;3.53;;;22.20;99.90;;;;;;5099404;27;20134;-83
2022/07/25 02:38:33;;;;;;;4.05;3.65;;;22.10;99.90;;;;;;5098078;27;20043;-81
2022/07/25 02:40:59;;;;;;;4.22;3.67;;;;;;;;;;5114657;27;20050;-81
2022/07/25 02:43:25;;;;;;;3.55;3.28;;;;;;;;;;5114916;27;20038;-82
2022/07/25 02:45:51;;;;;;;4.38;3.83;;;22.10;99.90;;;;;;5115189;27;20077;-86
2022/07/25 02:48:17;;;;;;;4.28;3.88;;;22.20;99.90;;;;;;5098289;27;20122;-82
2022/07/25 02:50:42;;;;;;;4.30;4.00;;;22.20;99.90;;;;;;5116188;27;20126;-85
2022/07/25 02:53:08;;;;;;;4.97;4.28;;;22.20;99.90;;;;;;5116502;27;20171;-85
2022/07/25 02:55:34;;;;;;;6.30;4.75;;;;;;;;;;5115524;27;20042;-85
2022/07/25 02:58:00;;;;;;;5.47;4.53;;;;;;;;;;5098946;27;20035;-83
2022/07/25 03:00:26;;;;;;;5.57;4.63;;;22.00;99.90;;;;;;5099509;27;20039;-81
2022/07/25 03:02:51;;;;;;;6.75;5.90;;;22.00;99.90;;;;;;5104821;27;20532;-81
2022/07/25 03:05:17;;;;;;;5.38;4.63;;;;;;;;;;5121690;27;20047;-84
2022/07/25 03:07:44;;;;;;;6.15;4.68;;;21.70;99.90;;;;;;5120560;27;20056;-86
2022/07/25 03:10:12;;;;;;;7.03;5.03;;;21.90;99.90;;;;;;5105253;27;20073;-82
2022/07/25 03:12:38;;;;;;;5.95;4.93;;;21.60;99.90;;;;;;5116888;27;20074;-86
2022/07/25 03:15:05;;;;;;;12.90;6.25;;;21.70;99.90;;;;;;5098367;27;20087;-84
2022/07/25 03:17:31;;;;;;;4.93;4.50;;;;;;;;;;5115834;27;20054;-86
2022/07/25 03:19:57;;;;;;;6.10;5.40;;;21.80;99.90;;;;;;5097739;27;20126;-85
2022/07/25 03:22:24;;;;;;;5.57;4.88;;;21.70;99.90;;;;;;5097289;28;20161;-81
2022/07/25 03:24:50;;;;;;;9.38;5.00;;;21.60;99.90;;;;;;5114081;27;20107;-82
2022/07/25 03:27:16;;;;;;;7.32;4.90;;;;;;;;;;5114066;27;20046;-85
2022/07/25 03:29:42;;;;;;;5.07;4.55;;;21.70;99.90;;;;;;5096623;27;20075;-85
2022/07/25 03:32:08;;;;;;;5.75;5.18;;;21.60;99.90;;;;;;5096567;28;20124;-85
2022/07/25 03:34:34;;;;;;;5.22;4.72;;;;;;;;;;5113368;28;20047;-83
2022/07/25 03:37:00;;;;;;;5.15;4.47;;;;;;;;;;5096536;28;20043;-84
2022/07/25 03:39:27;;;;;;;6.13;5.10;;;21.50;99.90;;;;;;5113839;27;20043;-84
2022/07/25 03:41:53;;;;;;;5.38;4.82;;;21.40;99.90;;;;;;5096765;28;20096;-82
2022/07/25 03:44:20;;;;;;;8.85;5.30;;;;;;;;;;5096266;28;20043;-83
2022/07/25 03:46:46;;;;;;;7.63;5.43;;;;;;;;;;5113757;28;20122;-84
2022/07/25 03:49:12;;;;;;;5.22;4.72;;;;;;;;;;5113579;28;20328;-86
2022/07/25 03:51:38;;;;;;;10.73;5.75;;;;;;;;;;5113159;28;20044;-84
2022/07/25 03:54:05;;;;;;;7.32;5.25;;;21.40;99.90;;;;;;5132274;28;20046;-85
2022/07/25 03:56:42;;;;;;;9.30;5.97;;;21.30;99.90;;;;;;5113187;28;20498;-83
2022/07/25 03:59:09;;;;;;;5.57;4.97;;;21.50;99.90;;;;;;5113520;28;20125;-84
2022/07/25 04:01:36;;;;;;;6.00;5.30;;;;;;;;;;5096648;28;20047;-84
2022/07/25 04:04:02;;;;;;;5.88;5.28;;;;;;;;;;5097812;28;20043;-81
2022/07/25 04:06:28;;;;;;;5.93;5.43;;;;;;;;;;5114466;28;20067;-81
2022/07/25 04:08:55;;;;;;;6.38;5.70;;;;;;;;;;5114520;28;20047;-82
2022/07/25 04:11:21;;;;;;;6.85;5.28;;;21.20;99.90;;;;;;5097200;28;20039;-82
2022/07/25 04:13:47;;;;;;;7.00;5.93;;;;;;;;;;5114757;28;20079;-82
2022/07/25 04:16:14;;;;;;;8.25;6.55;;;;;;;;;;5099422;27;20038;-82
2022/07/25 04:18:40;;;;;;;5.90;5.25;;;;;;;;;;5118621;27;20043;-82
2022/07/25 04:21:06;;;;;;;7.50;6.80;;;21.10;99.90;;;;;;5117849;27;20552;-82
2022/07/25 04:23:33;;;;;;;6.68;5.95;;;21.20;99.90;;;;;;5118281;27;20072;-82
2022/07/25 04:25:59;;;;;;;6.60;6.00;;;;;;;;;;5117459;27;20076;-83
2022/07/25 04:28:25;;;;;;;8.75;5.90;;;;;;;;;;5118200;27;20074;-81
2022/07/25 04:30:51;;;;;;;7.07;6.38;;;;;;;;;;5101004;27;20042;-82
2022/07/25 04:33:17;;;;;;;7.65;6.55;;;;;;;;;;5117331;27;20046;-81
2022/07/25 04:35:43;;;;;;;9.65;6.80;;;;;;;;;;5117192;27;20113;-82
2022/07/25 04:38:09;;;;;;;8.07;6.45;;;;;;;;;;5100648;27;20125;-82
2022/07/25 04:40:36;;;;;;;9.55;7.82;;;;;;;;;;5099999;27;20051;-82
2022/07/25 04:43:02;;;;;;;9.38;8.32;;;21.20;99.90;;;;;;5101188;27;20066;-82
2022/07/25 04:45:28;;;;;;;10.20;7.93;;;21.20;99.90;;;;;;5100576;27;20074;-82
2022/07/25 04:47:54;;;;;;;14.07;8.35;;;21.20;99.90;;;;;;5100552;27;20062;-82
2022/07/25 04:50:20;;;;;;;15.73;8.32;;;;;;;;;;5100425;27;20396;-81
2022/07/25 04:52:46;;;;;;;9.60;8.65;;;21.40;99.90;;;;;;5100697;27;20074;-82
2022/07/25 04:55:12;;;;;;;11.52;9.85;;;;;;;;;;5099603;27;20093;-84
2022/07/25 04:57:38;;;;;;;11.57;8.55;;;21.30;99.90;;;;;;5099527;27;20104;-84
2022/07/25 05:00:06;;;;;;;9.73;8.75;;;21.30;99.90;;;;;;5107986;27;20039;-84
2022/07/25 05:02:33;;;;;;;10.85;8.85;;;;;;;;;;5099579;27;20487;-86
2022/07/25 05:04:59;;;;;;;13.07;9.38;;;;;;;;;;5116266;27;20039;-86
2022/07/25 05:07:24;;;;;;;12.30;9.35;;;21.40;99.90;;;;;;5099021;27;20039;-85
2022/07/25 05:09:51;;;;;;;11.23;9.23;;;;;;;;;;5099151;27;20043;-83
2022/07/25 05:12:17;;;;;;;12.82;9.63;;;;;;;;;;5117325;27;20066;-82
2022/07/25 05:14:47;;;;;;;12.02;9.43;;;21.30;99.90;;;;;;5116923;27;20039;-87
2022/07/25 05:17:13;;;;;;;16.30;9.52;;;;;;;;;;5116534;27;20107;-83
2022/07/25 05:19:40;;;;;;;11.52;9.75;;;21.30;99.90;;;;;;5099387;27;20039;-82
2022/07/25 05:22:06;;;;;;;12.02;9.90;;;21.20;99.90;;;;;;5133837;27;20039;-85
2022/07/25 05:24:33;;;;;;;13.70;9.68;;;21.50;99.90;;;;;;5116376;27;20035;-85
2022/07/25 05:26:59;;;;;;;12.35;11.10;;;21.20;99.90;;;;;;5099507;27;20081;-86
2022/07/25 05:29:26;;;;;;;11.48;9.40;;;;;;;;;;5116568;27;20043;-82
2022/07/25 05:31:52;;;;;;;10.57;9.48;;;;;;;;;;5105138;27;20082;-80
2022/07/25 05:34:19;;;;;;;11.48;9.75;;;21.20;99.90;;;;;;5119896;27;20039;-82
2022/07/25 05:36:45;;;;;;;12.48;10.02;;;;;;;;;;5119598;27;20039;-85
2022/07/25 05:39:11;;;;;;;10.30;9.20;;;;;;;;;;5119239;27;20054;-81
2022/07/25 05:41:37;;;;;;;13.90;10.07;;;;;;;;;;5102676;27;20063;-87
2022/07/25 05:44:03;;;;;;;11.05;9.88;;;21.50;99.90;;;;;;5101978;27;20066;-82
2022/07/25 05:46:34;;;;;;;11.48;10.02;;;21.30;99.90;;;;;;5139005;27;20046;-85
2022/07/25 05:49:00;;;;;;;13.15;10.60;;;;;;;;;;5103964;27;20035;-81
2022/07/25 05:51:26;;;;;;;11.82;10.13;;;;;;;;;;5101709;27;20496;-84
2022/07/25 05:53:53;;;;;;;11.77;10.45;;;;;;;;;;5118801;27;20070;-86
2022/07/25 05:56:19;;;;;;;15.43;10.63;;;;;;;;;;5119204;27;20043;-81
2022/07/25 05:58:45;;;;;;;14.18;10.68;;;;;;;;;;5119069;27;20072;-86
2022/07/25 06:01:12;;;;;;;11.43;10.07;;;;;;;;;;5101708;27;20035;-84
2022/07/25 06:03:38;;;;;;;11.77;10.55;;;;;;;;;;5117037;27;20067;-81
2022/07/25 06:06:04;;;;;;;12.95;10.32;;;21.50;99.90;;;;;;5117083;27;20031;-82
2022/07/25 06:08:30;;;;;;;18.10;10.15;;;;;;;;;;5100375;27;20049;-82
2022/07/25 06:11:00;;;;;;;13.82;11.57;;;21.60;99.90;;;;;;5117289;27;20554;-82
2022/07/25 06:13:26;;;;;;;15.18;11.50;;;21.70;99.90;;;;;;5136018;27;20039;-85
2022/07/25 06:15:53;;;;;;;13.90;10.10;;;;;;;;;;5117518;27;20946;-84
2022/07/25 06:18:19;;;;;;;12.65;10.95;;;;;;;;;;5136076;27;20043;-81
2022/07/25 06:20:45;;;;;;;11.27;9.85;;;;;;;;;;5119866;27;20073;-90
2022/07/25 06:23:11;;;;;;;14.82;10.32;;;;;;;;;;5137721;27;20073;-86
2022/07/25 06:25:37;;;;;;;14.88;9.70;;;;;;;;;;5115715;27;20035;-84
2022/07/25 06:28:03;;;;;;;12.38;9.52;;;21.90;99.90;;;;;;5134282;27;20403;-86
2022/07/25 06:30:29;;;;;;;12.95;10.27;;;;;;;;;;5098770;27;20043;-82
2022/07/25 06:32:55;;;;;;;15.15;10.35;;;;;;;;;;5116349;27;20468;-86
2022/07/25 06:35:21;;;;;;;12.85;10.30;;;;;;;;;;5116129;27;20039;-87
2022/07/25 06:37:48;;;;;;;17.15;10.77;;;;;;;;;;5115525;27;20054;-85
2022/07/25 06:40:14;;;;;;;14.07;9.88;;;;;;;;;;5115592;27;20102;-84
2022/07/25 06:42:45;;;;;;;11.57;10.13;;;22.10;99.90;;;;;;5134296;27;20047;-86
2022/07/25 06:45:11;;;;;;;12.35;10.90;;;22.20;99.90;;;;;;5115727;27;20082;-88
2022/07/25 06:47:39;;;;;;;11.15;10.05;;;22.10;99.90;;;;;;5134020;27;20039;-85
2022/07/25 06:50:07;;;;;;;11.95;9.27;;;22.10;99.90;;;;;;5115953;27;20061;-86
2022/07/25 06:52:34;;;;;;;14.35;9.45;;;;;;;;;;5115922;27;20515;-87
2022/07/25 06:55:00;;;;;;;16.50;10.68;;;;;;;;;;5115462;27;20042;-87
2022/07/25 06:57:26;;;;;;;14.82;10.13;;;;;;;;;;5115367;27;20120;-82
2022/07/25 06:59:52;;;;;;;12.15;9.15;;;22.50;99.90;;;;;;5115124;27;20035;-86
2022/07/25 07:02:17;;;;;;;11.30;8.77;;;22.20;99.90;;;;;;5097996;27;20213;-83
2022/07/25 07:04:43;;;;;;;12.05;9.57;;;22.40;99.90;;;;;;5090275;27;20043;-83
2022/07/25 07:07:12;;;;;;;14.88;9.80;;;;;;;;;;5098627;27;20483;-85
2022/07/25 07:09:38;;;;;;;11.82;8.80;;;22.60;99.90;;;;;;5097266;27;20051;-81
2022/07/25 07:12:05;;;;;;;10.73;8.43;;;22.40;99.90;;;;;;5119544;27;20038;-84
2022/07/25 07:14:31;;;;;;;11.18;9.57;;;22.50;99.90;;;;;;5119116;27;20039;-82
2022/07/25 07:16:57;;;;;;;12.10;9.43;;;22.40;99.90;;;;;;5100860;27;20046;-81
2022/07/25 07:19:23;;;;;;;10.77;9.10;;;22.70;99.90;;;;;;5136640;27;20065;-82
2022/07/25 07:21:50;;;;;;;12.63;9.57;;;;;;;;;;5138130;27;20043;-86
2022/07/25 07:24:17;;;;;;;10.70;9.07;;;22.70;99.90;;;;;;5107736;28;20051;-88
2022/07/25 07:26:43;;;;;;;12.13;8.15;;;;;;;;;;5115655;27;20039;-84
2022/07/25 07:29:09;;;;;;;10.18;8.43;;;;;;;;;;5098713;28;20080;-87
2022/07/25 07:31:35;;;;;;;13.73;7.30;;;;;;;;;;5099079;27;20047;-81
2022/07/25 07:34:01;;;;;;;15.57;6.75;;;22.90;99.90;;;;;;5115784;28;20031;-81
2022/07/25 07:36:27;;;;;;;7.60;6.55;;;;;;;;;;5115539;28;20035;-87
2022/07/25 07:38:53;;;;;;;9.60;6.75;;;23.20;99.90;;;;;;5133979;28;20047;-88
2022/07/25 07:41:19;;;;;;;6.50;5.28;;;23.00;99.90;;;;;;5133514;28;20069;-85
2022/07/25 07:43:46;;;;;;;8.35;5.57;;;;;;;;;;5133638;28;20049;-88
2022/07/25 07:46:11;;;;;;;6.03;5.43;;;23.20;99.90;;;;;;5115376;28;20027;-86
2022/07/25 07:48:37;;;;;;;8.63;5.63;;;23.60;99.90;;;;;;5133309;28;20084;-87
2022/07/25 07:51:04;;;;;;;9.52;5.78;;;23.60;99.90;;;;;;5117195;27;20096;-88
2022/07/25 07:56:15;;;;;;;6.10;5.50;;;23.90;99.90;;;;;;5119617;27;20077;-84
2022/07/25 07:58:42;;;;;;;7.88;5.25;;;23.90;99.90;;;;;;5119776;27;20051;-90
2022/07/25 08:01:07;;;;;;;7.88;5.63;;;23.50;99.90;;;;;;5120397;27;20039;-89
2022/07/25 08:03:34;;;;;;;6.80;4.97;;;23.70;99.90;;;;;;5103117;27;20050;-81
2022/07/25 08:06:00;;;;;;;7.18;5.13;;;23.60;99.90;;;;;;5119022;27;20047;-90
2022/07/25 08:08:26;;;;;;;4.88;4.22;;;24.10;99.90;;;;;;5086049;27;20505;-90
2022/07/25 08:10:52;;;;;;;9.27;5.05;;;23.40;99.90;;;;;;5118800;27;20036;-84
2022/07/25 08:13:21;;;;;;;7.72;5.30;;;23.90;99.90;;;;;;5119036;27;20061;-85
2022/07/25 08:15:50;;;;;;;7.80;4.93;;;23.90;99.90;;;;;;5117938;27;20093;-85
2022/07/25 08:18:17;;;;;;;6.32;4.53;;;23.80;99.90;;;;;;5101630;27;20037;-89
2022/07/25 08:20:43;;;;;;;6.43;4.43;;;23.70;99.90;;;;;;5102229;27;20078;-86
2022/07/25 08:23:12;;;;;;;4.57;4.15;;;23.70;99.90;;;;;;5101656;27;20043;-83
2022/07/25 08:25:39;;;;;;;7.50;4.05;;;23.70;99.90;;;;;;5085272;27;20125;-82
2022/07/25 08:28:05;;;;;;;7.93;4.50;;;;;;;;;;5101141;27;20031;-84
2022/07/25 08:30:32;;;;;;;5.05;3.70;;;23.50;99.90;;;;;;5118822;27;20050;-85
2022/07/25 08:33:00;;;;;;;4.95;3.00;;;23.60;99.90;;;;;;5136620;27;20038;-81
2022/07/25 08:35:27;;;;;;;2.95;2.10;;;23.70;99.90;;;;;;5136386;27;20043;-84
2022/07/25 08:37:53;;;;;;;4.75;2.55;;;23.30;99.90;;;;;;5136631;27;20037;-88
2022/07/25 08:40:22;;;;;;;3.95;2.50;;;21.20;99.90;;;;;;5136406;27;20051;-84
2022/07/25 08:42:48;;;;;;;2.88;2.58;;;23.30;99.90;;;;;;5137262;27;20081;-90
2022/07/25 08:45:16;;;;;;;3.90;2.47;;;23.50;99.90;;;;;;5112205;27;20042;-84
2022/07/25 08:47:43;;;;;;;4.18;2.55;;;;;;;;;;5101461;27;20039;-85
2022/07/25 08:50:12;;;;;;;4.53;2.30;;;23.10;99.90;;;;;;5118512;27;20035;-84
2022/07/25 08:52:38;;;;;;;4.95;1.98;;;;;;;;;;5100892;27;20043;-80
2022/07/25 08:55:08;;;;;;;1.98;1.60;;;23.10;99.90;;;;;;5101445;27;20511;-84
2022/07/25 08:57:36;;;;;;;4.45;2.67;;;22.90;99.90;;;;;;5101149;27;20039;-83
2022/07/25 09:00:05;;;;;;;2.80;2.08;;;22.70;99.90;;;;;;5117725;27;20100;-81
2022/07/25 09:02:31;;;;;;;4.90;2.05;;;22.90;99.90;;;;;;5080243;28;20036;-86
2022/07/25 09:04:58;;;;;;;3.75;2.22;;;22.70;99.90;;;;;;5077583;28;20043;-85
2022/07/25 09:07:38;;;;;;;2.33;1.85;;;22.90;99.90;;;;;;5101166;27;20130;-84
2022/07/25 09:10:15;;;;;;;2.63;1.50;;;22.90;99.90;;;;;;5101805;27;20069;-91
2022/07/25 09:12:41;;;;;;;2.72;2.10;;;;;;;;;;5100286;27;20047;-86
2022/07/25 09:15:08;;;;;;;1.85;1.58;;;22.80;99.90;;;;;;5115991;27;20051;-81
2022/07/25 09:17:37;;;;;;;6.65;2.10;;;22.80;99.90;;;;;;5091811;27;20085;-84
2022/07/25 09:20:05;;;;;;;2.90;2.03;;;22.80;99.90;;;;;;5117413;27;20035;-85
2022/07/25 09:22:41;;;;;;;2.08;1.80;;;22.90;99.90;;;;;;5116420;27;20051;-81
2022/07/25 09:25:30;;;;;;;2.00;1.90;;;22.80;99.90;;;;;;5116352;27;20067;-81
2022/07/25 09:28:09;;;;;;;3.03;2.25;;;22.60;99.90;;;;;;5109800;27;20046;-81
2022/07/25 09:30:34;;;;;;;4.90;2.10;;;22.70;99.90;;;;;;5098854;27;20043;-80
2022/07/25 09:33:01;;;;;;;8.80;3.47;;;22.50;99.90;;;;;;5116208;27;20043;-81
2022/07/25 09:35:32;;;;;;;4.20;1.80;;;22.50;99.90;;;;;;5116301;27;20047;-83
2022/07/25 09:38:12;;;;;;;3.95;2.00;;;22.70;99.90;;;;;;5092223;27;20042;-83
2022/07/25 09:40:38;;;;;;;2.22;1.63;;;22.60;99.90;;;;;;5099042;27;20066;-82
2022/07/25 09:43:04;;;;;;;5.50;2.15;;;22.80;99.90;;;;;;5116179;27;20043;-84
2022/07/25 09:45:31;;;;;;;2.00;1.90;;;;;;;;;;5116653;27;20111;-81
2022/07/25 09:48:02;;;;;;;3.85;2.25;;;22.80;99.90;;;;;;5099104;27;20043;-85
2022/07/25 09:50:29;;;;;;;2.22;2.03;;;22.60;99.90;;;;;;5099828;27;20402;-81
2022/07/25 09:52:58;;;;;;;2.92;2.10;;;22.80;99.90;;;;;;5116790;27;20130;-85
2022/07/25 09:55:24;;;;;;;17.05;2.58;;;22.80;99.90;;;;;;5118008;27;20047;-84
2022/07/25 09:57:53;;;;;;;2.65;2.17;;;22.60;99.90;;;;;;5117124;27;20547;-82
2022/07/25 10:00:23;;;;;;;5.20;2.58;;;22.70;99.90;;;;;;5140475;27;20039;-89
2022/07/25 10:02:54;;;;;;;7.35;2.80;;;22.40;99.90;;;;;;5117788;27;20488;-90
2022/07/25 10:05:25;;;;;;;3.13;2.22;;;22.30;99.90;;;;;;5118082;27;20043;-88
2022/07/25 10:07:54;;;;;;;8.52;2.60;;;22.60;99.90;;;;;;5100123;27;20047;-82
2022/07/25 10:10:29;;;;;;;4.35;2.50;;;22.50;99.90;;;;;;5116646;27;20051;-89
2022/07/25 10:13:09;;;;;;;5.15;2.50;;;22.50;99.90;;;;;;5100528;28;20039;-85
2022/07/25 10:15:40;;;;;;;4.30;2.95;;;22.50;99.90;;;;;;5116567;27;20054;-91
2022/07/25 10:18:07;;;;;;;5.13;2.92;;;22.30;99.90;;;;;;5116362;27;20127;-90
2022/07/25 10:20:33;;;;;;;15.85;4.15;;;22.50;99.90;;;;;;5116806;27;20134;-88
2022/07/25 10:22:59;;;;;;;3.88;2.17;;;22.40;99.90;;;;;;5117943;27;20066;-93
2022/07/25 10:25:25;;;;;;;7.82;2.20;;;;;;;;;;5117039;27;20050;-84
2022/07/25 10:27:59;;;;;;;2.97;2.50;;;22.60;99.90;;;;;;5117065;27;20068;-84
2022/07/25 10:30:34;;;;;;;4.38;2.50;;;22.50;99.90;;;;;;5082445;27;20126;-88
2022/07/25 10:33:03;;;;;;;5.10;2.38;;;22.60;99.90;;;;;;5099364;27;20042;-85
2022/07/25 10:35:30;;;;;;;3.60;2.40;;;22.70;99.90;;;;;;5116382;27;20095;-88
2022/07/25 10:37:57;;;;;;;4.57;2.30;;;22.70;99.90;;;;;;5090231;27;20050;-83
2022/07/25 10:40:28;;;;;;;3.33;2.60;;;22.60;99.90;;;;;;5115409;27;20173;-86
2022/07/25 10:43:04;;;;;;;5.97;2.38;;;22.60;99.90;;;;;;5115544;27;20039;-85
2022/07/25 10:45:56;;;;;;;5.20;2.15;;;22.70;99.90;;;;;;5115640;27;20391;-86
2022/07/25 10:48:31;;;;;;;4.63;2.70;;;23.10;99.90;;;;;;5114835;27;20111;-85
2022/07/25 10:51:01;;;;;;;5.25;2.70;;;23.00;99.90;;;;;;5114684;27;20403;-90
2022/07/25 10:53:31;;;;;;;5.15;2.70;;;23.00;99.90;;;;;;5115474;27;20057;-88
2022/07/25 10:56:21;;;;;;;5.70;2.15;;;22.90;99.90;;;;;;5097977;27;20552;-88
2022/07/25 10:58:47;;;;;;;5.55;3.22;;;;;;;;;;5115300;27;20544;-89
2022/07/25 11:01:18;;;;;;;5.47;2.25;;;22.90;99.90;;;;;;5115006;27;20392;-86
2022/07/25 11:03:43;;;;;;;9.18;2.80;;;23.10;99.90;;;;;;5115089;27;20516;-87
2022/07/25 11:06:11;;;;;;;8.13;3.35;;;22.90;99.90;;;;;;5097933;27;20118;-88
2022/07/25 11:08:37;;;;;;;8.05;2.60;;;23.10;99.90;;;;;;5098001;27;20077;-88
2022/07/25 11:11:04;;;;;;;7.05;2.55;;;23.10;99.90;;;;;;5098197;27;20522;-84
2022/07/25 11:13:36;;;;;;;7.35;2.20;;;22.90;99.90;;;;;;5115534;27;20134;-87
2022/07/25 11:16:02;;;;;;;3.38;2.40;;;;;;;;;;5097740;27;20043;-83
2022/07/25 11:18:37;;;;;;;4.10;2.58;;;22.80;99.90;;;;;;5115407;27;20089;-87
2022/07/25 11:21:06;;;;;;;7.95;2.30;;;23.10;99.90;;;;;;5097751;27;20074;-88
2022/07/25 11:23:32;;;;;;;6.90;3.53;;;;;;;;;;5104530;27;20053;-84
2022/07/25 11:26:09;;;;;;;10.45;3.03;;;22.90;99.90;;;;;;5120108;27;20043;-84
2022/07/25 11:28:48;;;;;;;7.85;3.47;;;22.90;99.90;;;;;;5103183;27;21351;-90
2022/07/25 11:31:15;;;;;;;5.38;3.05;;;22.70;99.90;;;;;;5103615;27;20039;-85
2022/07/25 11:33:44;;;;;;;4.97;2.90;;;22.50;99.90;;;;;;5102676;28;20043;-81
2022/07/25 11:36:10;;;;;;;13.80;2.92;;;;;;;;;;5120563;27;20035;-87
2022/07/25 11:38:40;;;;;;;6.55;2.72;;;22.50;99.90;;;;;;5118109;28;20036;-89
2022/07/25 11:41:06;;;;;;;4.28;2.70;;;22.70;99.90;;;;;;5102092;28;20051;-84
2022/07/25 11:43:32;;;;;;;4.47;3.03;;;22.70;99.90;;;;;;5103833;28;20055;-83
2022/07/25 11:46:05;;;;;;;5.72;2.75;;;22.80;99.90;;;;;;5117002;28;20034;-86
2022/07/25 11:48:39;;;;;;;8.40;2.78;;;23.00;99.90;;;;;;5118561;28;20043;-85
2022/07/25 11:51:13;;;;;;;6.60;2.33;;;23.10;99.90;;;;;;5099499;28;20138;-81
2022/07/25 11:53:45;;;;;;;7.18;2.72;;;22.90;99.90;;;;;;5136251;28;20043;-80
2022/07/25 11:56:19;;;;;;;2.92;2.15;;;22.80;99.90;;;;;;5103811;28;20073;-84
2022/07/25 11:58:58;;;;;;;4.63;2.60;;;22.80;99.90;;;;;;5118633;28;20077;-84
2022/07/25 12:01:31;;;;;;;16.85;4.03;;;23.00;99.90;;;;;;5100251;28;20039;-80
2022/07/25 12:04:14;;;;;;;4.47;2.33;;;22.90;99.90;;;;;;5098052;28;20047;-88
2022/07/25 12:06:41;;;;;;;7.57;2.25;;;22.70;99.90;;;;;;5113526;28;20100;-84
2022/07/25 12:09:15;;;;;;;5.65;2.35;;;22.90;99.90;;;;;;5097236;28;20058;-89
2022/07/25 12:11:42;;;;;;;7.70;3.22;;;22.70;99.90;;;;;;5113786;28;20043;-86
2022/07/25 12:14:09;;;;;;;5.80;2.33;;;22.90;99.90;;;;;;5097195;28;20125;-86
2022/07/25 12:16:35;;;;;;;4.90;2.33;;;22.70;99.90;;;;;;5096756;28;20075;-82
2022/07/25 12:19:02;;;;;;;4.70;2.28;;;22.70;99.90;;;;;;5097105;28;20073;-86
2022/07/25 12:21:28;;;;;;;11.57;2.67;;;22.80;99.90;;;;;;5113977;28;20423;-85
2022/07/25 12:23:54;;;;;;;4.88;2.60;;;23.00;99.90;;;;;;5096549;28;20047;-82
2022/07/25 12:26:20;;;;;;;9.05;2.75;;;23.00;99.90;;;;;;5113758;28;20080;-87
2022/07/25 12:28:46;;;;;;;4.07;2.17;;;22.90;99.90;;;;;;5096485;28;20043;-87
2022/07/25 12:31:11;;;;;;;6.22;2.42;;;23.00;99.90;;;;;;5096516;28;20067;-81
2022/07/25 12:33:38;;;;;;;3.60;2.30;;;22.80;99.90;;;;;;5113761;28;20475;-86
2022/07/25 12:36:04;;;;;;;6.03;3.00;;;23.00;99.90;;;;;;5131845;27;20051;-87
2022/07/25 12:38:30;;;;;;;5.82;2.33;;;23.20;99.90;;;;;;5100735;27;20050;-88
2022/07/25 12:40:57;;;;;;;8.45;2.97;;;23.10;99.90;;;;;;5117505;27;20176;-86
2022/07/25 12:43:23;;;;;;;8.48;2.63;;;23.20;99.90;;;;;;5100516;27;20445;-84
2022/07/25 12:45:48;;;;;;;4.65;1.67;;;23.30;99.90;;;;;;5100889;27;20531;-84
2022/07/25 12:48:15;;;;;;;5.85;2.17;;;;;;;;;;5100012;27;20403;-83
2022/07/25 12:50:41;;;;;;;9.18;3.00;;;23.40;99.90;;;;;;5101082;27;20039;-84
2022/07/25 12:53:07;;;;;;;5.38;1.98;;;;;;;;;;5117606;27;20522;-87
2022/07/25 12:55:33;;;;;;;6.78;3.28;;;;;;;;;;5099939;27;20046;-85
2022/07/25 12:57:59;;;;;;;6.05;2.10;;;23.20;99.90;;;;;;5100289;27;20121;-85
2022/07/25 13:00:26;;;;;;;4.00;2.47;;;23.40;99.90;;;;;;5116919;27;20089;-84
2022/07/25 13:02:54;;;;;;;4.45;2.72;;;23.10;99.90;;;;;;5116756;27;20051;-81
2022/07/25 13:05:24;;;;;;;8.30;2.35;;;22.80;99.90;;;;;;5116937;27;20043;-81
2022/07/25 13:07:50;;;;;;;5.57;2.60;;;;;;;;;;5116258;27;20515;-82
2022/07/25 13:10:20;;;;;;;5.65;2.63;;;;;;;;;;5117471;27;20482;-87
2022/07/25 13:12:46;;;;;;;8.23;2.55;;;23.00;99.90;;;;;;5101684;27;20039;-81
2022/07/25 13:15:11;;;;;;;8.35;2.70;;;23.20;99.90;;;;;;5101133;27;20053;-91